createdAt,value
2022-07-30T00:00:41.201Z,19.80
2022-07-30T00:03:09.543Z,19.70
2022-07-30T00:05:39.212Z,19.80
2022-07-30T00:08:07.873Z,19.80
2022-07-30T00:10:36.277Z,19.80
2022-07-30T00:13:04.761Z,19.80
2022-07-30T00:15:33.135Z,19.70
2022-07-30T00:18:01.465Z,19.70
2022-07-30T00:20:29.864Z,19.70
2022-07-30T00:23:04.160Z,19.70
2022-07-30T00:25:33.321Z,19.70
2022-07-30T00:28:01.631Z,19.70
2022-07-30T00:30:30.119Z,19.70
2022-07-30T00:32:58.674Z,19.70
2022-07-30T00:35:27.638Z,19.70
2022-07-30T00:37:56.424Z,19.70
2022-07-30T00:40:26.565Z,19.70
2022-07-30T00:42:55.457Z,19.70
2022-07-30T00:45:23.966Z,19.70
2022-07-30T00:47:52.231Z,19.70
2022-07-30T00:50:20.575Z,19.70
2022-07-30T00:52:49.984Z,19.60
2022-07-30T00:55:18.708Z,19.60
2022-07-30T00:57:48.848Z,19.60
2022-07-30T01:00:18.964Z,19.60
2022-07-30T01:02:47.338Z,19.50
2022-07-30T01:05:15.712Z,19.50
2022-07-30T01:07:44.430Z,19.50
2022-07-30T01:10:14.659Z,19.50
2022-07-30T01:12:44.570Z,19.50
2022-07-30T01:15:14.433Z,19.40
2022-07-30T01:17:43.182Z,19.40
2022-07-30T01:20:17.457Z,19.40
2022-07-30T01:22:56.656Z,19.30
2022-07-30T01:25:43.623Z,19.40
2022-07-30T01:28:18.441Z,19.30
2022-07-30T01:30:50.018Z,19.30
2022-07-30T01:33:20.977Z,19.30
2022-07-30T01:35:51.818Z,19.20
2022-07-30T01:38:23.149Z,19.10
2022-07-30T01:40:56.041Z,19.10
2022-07-30T01:43:25.956Z,19.00
2022-07-30T01:45:56.326Z,19.00
2022-07-30T01:48:26.872Z,19.00
2022-07-30T01:50:57.941Z,19.00
2022-07-30T01:53:28.912Z,19.00
2022-07-30T01:56:00.155Z,18.90
2022-07-30T01:58:33.166Z,18.90
2022-07-30T02:01:01.770Z,18.90
2022-07-30T02:03:30.704Z,18.80
2022-07-30T02:06:02.534Z,18.80
2022-07-30T02:08:39.614Z,18.80
2022-07-30T02:11:11.454Z,18.70
2022-07-30T02:13:46.190Z,18.70
2022-07-30T02:16:19.984Z,18.60
2022-07-30T02:18:58.549Z,18.50
2022-07-30T02:21:36.575Z,18.50
2022-07-30T02:24:09.242Z,18.50
2022-07-30T02:26:41.825Z,18.50
2022-07-30T02:29:11.892Z,18.50
2022-07-30T02:31:42.938Z,18.50
2022-07-30T02:34:14.277Z,18.50
2022-07-30T02:36:44.580Z,18.40
2022-07-30T02:39:14.712Z,18.40
2022-07-30T02:41:49.636Z,18.40
2022-07-30T02:44:20.027Z,18.40
2022-07-30T02:46:50.163Z,18.30
2022-07-30T02:49:20.328Z,18.30
2022-07-30T02:51:49.518Z,18.20
2022-07-30T02:54:20.564Z,18.20
2022-07-30T02:56:52.929Z,18.20
2022-07-30T02:59:23.245Z,18.10
2022-07-30T03:01:52.462Z,18.10
2022-07-30T03:04:23.104Z,18.10
2022-07-30T03:06:52.623Z,18.10
2022-07-30T03:09:22.000Z,18.10
2022-07-30T03:11:53.786Z,18.00
2022-07-30T03:14:22.288Z,18.00
2022-07-30T03:16:58.254Z,18.00
2022-07-30T03:19:31.029Z,17.90
2022-07-30T03:22:02.428Z,17.90
2022-07-30T03:24:33.627Z,17.90
2022-07-30T03:27:04.277Z,17.80
2022-07-30T03:29:34.013Z,17.80
2022-07-30T03:32:02.791Z,17.80
2022-07-30T03:34:35.117Z,17.80
2022-07-30T03:37:06.457Z,17.80
2022-07-30T03:39:36.092Z,17.80
2022-07-30T03:42:09.317Z,17.70
2022-07-30T03:44:39.158Z,17.70
2022-07-30T03:47:09.851Z,17.70
2022-07-30T03:49:38.112Z,17.60
2022-07-30T03:52:07.215Z,17.60
2022-07-30T03:54:36.273Z,17.60
2022-07-30T03:57:07.088Z,17.50
2022-07-30T03:59:35.514Z,17.50
2022-07-30T04:02:07.618Z,17.50
2022-07-30T04:04:36.192Z,17.50
2022-07-30T04:07:04.974Z,17.50
2022-07-30T04:09:33.220Z,17.50
2022-07-30T04:12:01.600Z,17.50
2022-07-30T04:14:41.858Z,17.50
2022-07-30T04:17:14.823Z,17.50
2022-07-30T04:19:54.720Z,17.50
2022-07-30T04:22:28.563Z,17.50
2022-07-30T04:24:57.736Z,17.50
2022-07-30T04:27:27.202Z,17.50
2022-07-30T04:29:57.437Z,17.40
2022-07-30T04:32:25.737Z,17.40
2022-07-30T04:34:55.406Z,17.40
2022-07-30T04:37:26.137Z,17.30
2022-07-30T04:39:56.155Z,17.30
2022-07-30T04:42:25.117Z,17.30
2022-07-30T04:44:54.099Z,17.30
2022-07-30T04:47:25.167Z,17.30
2022-07-30T04:49:55.968Z,17.30
2022-07-30T04:52:26.536Z,17.30
2022-07-30T04:54:57.664Z,17.30
2022-07-30T04:57:28.551Z,17.40
2022-07-30T04:59:56.838Z,17.40
2022-07-30T05:02:30.127Z,17.40
2022-07-30T05:05:00.312Z,17.50
2022-07-30T05:07:30.001Z,17.50
2022-07-30T05:09:58.524Z,17.50
2022-07-30T05:12:34.356Z,17.40
2022-07-30T05:15:02.627Z,17.40
2022-07-30T05:17:32.377Z,17.40
2022-07-30T05:20:01.088Z,17.40
2022-07-30T05:22:31.137Z,17.50
2022-07-30T05:24:59.680Z,17.50
2022-07-30T05:27:28.311Z,17.50
2022-07-30T05:29:56.612Z,17.50
2022-07-30T05:32:25.659Z,17.50
2022-07-30T05:34:58.666Z,17.40
2022-07-30T05:37:26.979Z,17.40
2022-07-30T05:39:57.304Z,17.40
2022-07-30T05:42:31.743Z,17.40
2022-07-30T05:45:00.352Z,17.40
2022-07-30T05:47:28.736Z,17.40
2022-07-30T05:50:01.533Z,17.40
2022-07-30T05:52:32.972Z,17.50
2022-07-30T05:55:01.347Z,17.50
2022-07-30T05:57:29.954Z,17.50
2022-07-30T05:59:58.336Z,17.50
2022-07-30T06:02:26.847Z,17.40
2022-07-30T06:04:55.273Z,17.40
2022-07-30T06:07:25.081Z,17.30
2022-07-30T06:09:53.607Z,17.30
2022-07-30T06:12:22.192Z,17.30
2022-07-30T06:14:50.459Z,17.40
2022-07-30T06:17:18.798Z,17.30
2022-07-30T06:19:47.374Z,17.30
2022-07-30T06:22:16.071Z,17.40
2022-07-30T06:24:45.944Z,17.40
2022-07-30T06:27:14.353Z,17.40
2022-07-30T06:29:43.017Z,17.40
2022-07-30T06:32:11.416Z,17.40
2022-07-30T06:34:39.698Z,17.50
2022-07-30T06:37:08.001Z,17.40
2022-07-30T06:39:57.969Z,17.50
2022-07-30T06:42:26.271Z,17.50
2022-07-30T06:44:54.716Z,17.40
2022-07-30T06:47:26.423Z,17.40
2022-07-30T06:49:55.000Z,17.40
2022-07-30T06:52:23.585Z,17.40
2022-07-30T06:54:52.370Z,17.40
2022-07-30T06:57:20.710Z,17.40
2022-07-30T06:59:55.995Z,17.30
2022-07-30T07:02:26.110Z,17.30
2022-07-30T07:04:54.459Z,17.30
2022-07-30T07:07:40.288Z,17.30
2022-07-30T07:10:10.322Z,17.30
2022-07-30T07:12:38.963Z,17.40
2022-07-30T07:15:10.415Z,17.40
2022-07-30T07:17:38.807Z,17.50
2022-07-30T07:20:08.198Z,17.60
2022-07-30T07:22:36.577Z,17.60
2022-07-30T07:25:05.307Z,17.70
2022-07-30T07:27:34.120Z,17.80
2022-07-30T07:30:05.399Z,17.90
2022-07-30T07:32:36.420Z,17.90
2022-07-30T07:35:05.373Z,18.00
2022-07-30T07:37:33.803Z,18.10
2022-07-30T07:40:02.340Z,18.20
2022-07-30T07:42:32.075Z,18.30
2022-07-30T07:45:10.427Z,18.40
2022-07-30T07:47:56.452Z,18.50
2022-07-30T07:50:25.028Z,18.60
2022-07-30T07:52:53.867Z,18.70
2022-07-30T07:55:24.873Z,18.90
2022-07-30T07:57:54.690Z,19.00
2022-07-30T08:00:23.055Z,19.00
2022-07-30T08:02:53.726Z,19.20
2022-07-30T08:05:22.118Z,19.20
2022-07-30T08:07:50.943Z,19.00
2022-07-30T08:10:19.520Z,19.10
2022-07-30T08:12:49.553Z,19.10
2022-07-30T08:15:21.761Z,19.00
2022-07-30T08:17:50.723Z,19.00
2022-07-30T08:20:22.592Z,19.00
2022-07-30T08:22:50.971Z,19.00
2022-07-30T08:25:24.154Z,19.00
2022-07-30T08:27:53.158Z,19.10
2022-07-30T08:30:22.385Z,19.10
2022-07-30T08:32:50.832Z,19.00
2022-07-30T08:35:20.732Z,19.00
2022-07-30T08:37:49.434Z,19.00
2022-07-30T08:40:19.807Z,19.00
2022-07-30T08:42:48.521Z,19.10
2022-07-30T08:45:18.416Z,19.20
2022-07-30T08:47:47.661Z,19.40
2022-07-30T08:50:16.683Z,19.40
2022-07-30T08:52:49.137Z,19.40
2022-07-30T08:55:17.846Z,19.50
2022-07-30T08:57:46.777Z,19.60
2022-07-30T09:00:16.776Z,19.70
2022-07-30T09:02:45.842Z,19.80
2022-07-30T09:05:14.468Z,20.00
2022-07-30T09:07:43.673Z,20.10
2022-07-30T09:10:13.417Z,20.30
2022-07-30T09:12:43.237Z,20.50
2022-07-30T09:15:14.400Z,20.70
2022-07-30T09:17:51.913Z,20.90
2022-07-30T09:20:20.698Z,21.00
2022-07-30T09:22:51.603Z,21.20
2022-07-30T09:25:35.678Z,21.50
2022-07-30T09:28:16.020Z,21.80
2022-07-30T09:30:46.996Z,22.20
2022-07-30T09:33:15.765Z,22.50
2022-07-30T09:35:46.285Z,22.90
2022-07-30T09:38:14.967Z,23.10
2022-07-30T09:40:57.307Z,23.40
2022-07-30T09:43:28.047Z,23.70
2022-07-30T09:46:00.569Z,23.90
2022-07-30T09:48:29.567Z,24.10
2022-07-30T09:50:58.078Z,24.30
2022-07-30T09:53:26.635Z,24.50
2022-07-30T09:55:56.507Z,24.70
2022-07-30T09:58:27.173Z,24.90
2022-07-30T10:01:00.164Z,24.90
2022-07-30T10:03:34.463Z,24.90
2022-07-30T10:06:12.029Z,24.80
2022-07-30T10:08:42.724Z,25.20
2022-07-30T10:11:22.718Z,25.40
2022-07-30T10:13:56.335Z,25.50
2022-07-30T10:16:27.783Z,25.60
2022-07-30T10:19:00.300Z,25.80
2022-07-30T10:21:32.464Z,25.90
2022-07-30T10:24:01.382Z,26.00
2022-07-30T10:26:36.304Z,26.30
2022-07-30T10:29:16.709Z,26.40
2022-07-30T10:31:57.554Z,26.60
2022-07-30T10:34:29.354Z,26.70
2022-07-30T10:37:06.654Z,26.90
2022-07-30T10:39:40.492Z,26.80
2022-07-30T10:42:36.208Z,26.90
2022-07-30T10:45:17.886Z,27.10
2022-07-30T10:47:49.880Z,27.30
2022-07-30T10:50:33.298Z,27.20
2022-07-30T10:53:02.824Z,27.50
2022-07-30T10:55:38.913Z,27.60
2022-07-30T10:58:09.755Z,27.80
2022-07-30T11:01:00.991Z,27.80
2022-07-30T11:03:40.335Z,28.10
2022-07-30T11:06:29.849Z,28.30
2022-07-30T11:08:58.637Z,28.30
2022-07-30T11:12:05.429Z,28.30
2022-07-30T11:15:06.174Z,28.30
2022-07-30T11:18:03.021Z,28.50
2022-07-30T11:20:33.646Z,28.30
2022-07-30T11:23:39.394Z,28.40
2022-07-30T11:26:14.395Z,28.60
2022-07-30T11:28:45.292Z,28.80
2022-07-30T11:31:55.115Z,28.60
2022-07-30T11:34:31.365Z,28.50
2022-07-30T11:37:18.294Z,28.40
2022-07-30T11:40:12.694Z,28.50
2022-07-30T11:42:42.934Z,28.60
2022-07-30T11:45:29.841Z,28.70
2022-07-30T11:48:03.858Z,29.00
2022-07-30T11:50:34.692Z,28.90
2022-07-30T11:53:04.758Z,28.80
2022-07-30T11:55:36.402Z,28.90
2022-07-30T11:58:07.494Z,29.20
2022-07-30T12:00:38.547Z,29.40
2022-07-30T12:03:15.611Z,29.40
2022-07-30T12:05:44.918Z,29.40
2022-07-30T12:08:35.160Z,29.30
2022-07-30T12:11:04.736Z,29.00
2022-07-30T12:13:44.166Z,28.80
2022-07-30T12:16:17.731Z,28.70
2022-07-30T12:18:47.670Z,28.70
2022-07-30T12:21:17.050Z,28.60
2022-07-30T12:23:56.543Z,28.50
2022-07-30T12:26:29.027Z,28.60
2022-07-30T12:28:58.372Z,28.80
2022-07-30T12:31:27.348Z,28.70
2022-07-30T12:33:58.923Z,28.50
2022-07-30T12:36:31.067Z,28.60
2022-07-30T12:38:59.775Z,28.40
2022-07-30T12:41:45.052Z,28.30
2022-07-30T12:44:37.562Z,28.20
2022-07-30T12:47:07.962Z,27.80
2022-07-30T12:49:45.843Z,27.70
2022-07-30T12:52:30.838Z,27.50
2022-07-30T12:55:05.293Z,27.30
2022-07-30T12:57:58.171Z,27.20
2022-07-30T13:00:28.680Z,27.20
2022-07-30T13:02:57.411Z,27.20
2022-07-30T13:05:48.562Z,27.30
2022-07-30T13:08:17.160Z,27.40
2022-07-30T13:10:59.941Z,27.30
2022-07-30T13:13:31.073Z,27.30
2022-07-30T13:16:01.355Z,27.30
2022-07-30T13:18:30.863Z,27.20
2022-07-30T13:20:59.632Z,26.90
2022-07-30T13:23:29.939Z,26.90
2022-07-30T13:25:58.660Z,26.90
2022-07-30T13:28:28.030Z,26.90
2022-07-30T13:30:58.117Z,27.00
2022-07-30T13:33:26.643Z,26.80
2022-07-30T13:35:55.182Z,26.80
2022-07-30T13:38:24.243Z,26.90
2022-07-30T13:40:53.153Z,27.10
2022-07-30T13:43:21.673Z,27.20
2022-07-30T13:45:52.101Z,27.30
2022-07-30T13:48:22.249Z,27.40
2022-07-30T13:50:50.564Z,27.50
2022-07-30T13:53:19.051Z,27.70
2022-07-30T13:55:47.755Z,27.70
2022-07-30T13:58:16.653Z,27.90
2022-07-30T14:00:47.867Z,28.00
2022-07-30T14:03:16.293Z,28.10
2022-07-30T14:05:46.125Z,28.10
2022-07-30T14:08:14.473Z,28.10
2022-07-30T14:10:42.779Z,28.10
2022-07-30T14:13:16.058Z,28.00
2022-07-30T14:15:49.891Z,28.10
2022-07-30T14:18:18.341Z,28.10
2022-07-30T14:20:49.455Z,28.20
2022-07-30T14:23:18.233Z,28.20
2022-07-30T14:25:46.873Z,28.10
2022-07-30T14:28:15.251Z,28.10
2022-07-30T14:30:43.733Z,28.20
2022-07-30T14:33:12.423Z,28.10
2022-07-30T14:35:40.748Z,28.00
2022-07-30T14:38:10.521Z,28.00
2022-07-30T14:40:38.902Z,28.00
2022-07-30T14:43:07.192Z,28.00
2022-07-30T14:45:36.647Z,28.00
2022-07-30T14:48:05.325Z,28.00
2022-07-30T14:50:39.420Z,28.00
2022-07-30T14:53:22.509Z,28.10
2022-07-30T14:55:51.000Z,28.10
2022-07-30T14:58:19.310Z,28.00
2022-07-30T15:00:48.308Z,27.90
2022-07-30T15:03:17.388Z,27.80
2022-07-30T15:05:49.025Z,27.70
2022-07-30T15:08:21.839Z,27.60
2022-07-30T15:10:51.082Z,27.50
2022-07-30T15:13:19.640Z,27.40
2022-07-30T15:15:49.325Z,27.40
2022-07-30T15:18:17.611Z,27.30
2022-07-30T15:20:45.992Z,27.20
2022-07-30T15:23:15.581Z,27.20
2022-07-30T15:25:45.912Z,27.10
2022-07-30T15:28:14.546Z,27.10
2022-07-30T15:30:43.052Z,27.10
2022-07-30T15:33:11.397Z,27.10
2022-07-30T15:35:39.794Z,27.00
2022-07-30T15:38:08.179Z,27.00
2022-07-30T15:40:36.494Z,27.00
2022-07-30T15:43:10.387Z,27.10
2022-07-30T15:45:55.550Z,27.10
2022-07-30T15:48:27.416Z,27.10
2022-07-30T15:51:00.846Z,27.00
2022-07-30T15:53:29.912Z,26.90
2022-07-30T15:55:58.355Z,26.60
2022-07-30T15:58:28.404Z,26.50
2022-07-30T16:00:56.945Z,26.40
2022-07-30T16:03:25.697Z,26.30
2022-07-30T16:05:54.004Z,26.20
2022-07-30T16:08:22.956Z,26.30
2022-07-30T16:10:52.067Z,26.20
2022-07-30T16:13:20.430Z,26.20
2022-07-30T16:15:50.200Z,26.10
2022-07-30T16:18:18.417Z,26.10
2022-07-30T16:20:46.738Z,26.00
2022-07-30T16:23:20.939Z,25.90
2022-07-30T16:25:49.738Z,25.80
2022-07-30T16:28:18.569Z,25.70
2022-07-30T16:30:50.495Z,25.70
2022-07-30T16:33:21.637Z,25.60
2022-07-30T16:35:51.161Z,25.60
2022-07-30T16:38:20.863Z,25.60
2022-07-30T16:40:49.347Z,25.60
2022-07-30T16:43:19.717Z,25.50
2022-07-30T16:45:48.535Z,25.50
2022-07-30T16:48:17.154Z,25.60
2022-07-30T16:50:47.753Z,25.50
2022-07-30T16:53:16.546Z,25.60
2022-07-30T16:55:47.274Z,25.60
2022-07-30T16:58:15.868Z,25.60
2022-07-30T17:00:44.731Z,25.50
2022-07-30T17:03:20.164Z,25.50
2022-07-30T17:05:50.504Z,25.40
2022-07-30T17:08:19.358Z,25.30
2022-07-30T17:10:54.053Z,25.30
2022-07-30T17:13:22.708Z,25.20
2022-07-30T17:15:51.206Z,25.20
2022-07-30T17:18:19.945Z,25.20
2022-07-30T17:20:49.658Z,25.10
2022-07-30T17:23:18.080Z,25.10
2022-07-30T17:25:46.646Z,25.00
2022-07-30T17:28:15.492Z,25.00
2022-07-30T17:30:43.961Z,25.00
2022-07-30T17:33:12.457Z,25.00
2022-07-30T17:35:40.945Z,25.00
2022-07-30T17:38:10.790Z,25.00
2022-07-30T17:40:39.275Z,24.90
2022-07-30T17:43:07.921Z,24.90
2022-07-30T17:45:37.522Z,24.80
2022-07-30T17:48:07.104Z,24.80
2022-07-30T17:50:36.457Z,24.80
2022-07-30T17:53:06.085Z,24.80
2022-07-30T17:55:36.184Z,24.80
2022-07-30T17:58:05.229Z,24.80
2022-07-30T18:00:34.871Z,24.80
2022-07-30T18:03:03.712Z,24.80
2022-07-30T18:05:32.071Z,24.80
2022-07-30T18:08:00.676Z,24.80
2022-07-30T18:10:29.085Z,24.70
2022-07-30T18:12:58.746Z,24.70
2022-07-30T18:15:47.062Z,24.60
2022-07-30T18:18:15.514Z,24.60
2022-07-30T18:20:48.136Z,24.60
2022-07-30T18:23:19.243Z,24.60
2022-07-30T18:25:51.532Z,24.50
2022-07-30T18:28:22.809Z,24.50
2022-07-30T18:30:51.527Z,24.50
2022-07-30T18:33:20.096Z,24.40
2022-07-30T18:35:48.561Z,24.30
2022-07-30T18:38:17.068Z,24.30
2022-07-30T18:40:57.617Z,24.30
2022-07-30T18:43:28.519Z,24.30
2022-07-30T18:46:05.668Z,24.20
2022-07-30T18:48:42.511Z,24.20
2022-07-30T18:51:13.999Z,24.20
2022-07-30T18:53:42.912Z,24.10
2022-07-30T18:56:11.337Z,24.10
2022-07-30T18:58:41.177Z,24.10
2022-07-30T19:01:09.744Z,24.00
2022-07-30T19:03:38.182Z,24.00
2022-07-30T19:06:06.639Z,23.90
2022-07-30T19:08:35.018Z,23.90
2022-07-30T19:11:03.574Z,23.90
2022-07-30T19:13:31.968Z,23.80
2022-07-30T19:16:01.734Z,23.80
2022-07-30T19:18:30.116Z,23.80
2022-07-30T19:20:58.548Z,23.70
2022-07-30T19:23:26.882Z,23.70
2022-07-30T19:25:55.283Z,23.70
2022-07-30T19:28:25.095Z,23.60
2022-07-30T19:30:53.771Z,23.60
2022-07-30T19:33:24.233Z,23.60
2022-07-30T19:35:52.542Z,23.60
2022-07-30T19:38:21.821Z,23.60
2022-07-30T19:40:52.661Z,23.50
2022-07-30T19:46:10.727Z,23.50
2022-07-30T19:48:41.071Z,23.40
2022-07-30T19:51:20.240Z,23.40
2022-07-30T19:53:49.677Z,23.40
2022-07-30T19:56:18.067Z,23.40
2022-07-30T19:58:48.417Z,23.40
2022-07-30T20:01:16.852Z,23.40
2022-07-30T20:03:46.778Z,23.30
2022-07-30T20:06:16.253Z,23.30
2022-07-30T20:08:45.369Z,23.20
2022-07-30T20:11:35.144Z,23.20
2022-07-30T20:14:02.886Z,23.20
2022-07-30T20:16:32.845Z,23.20
2022-07-30T20:19:09.767Z,23.20
2022-07-30T20:21:56.391Z,23.10
2022-07-30T20:24:33.139Z,23.20
2022-07-30T20:27:36.408Z,23.20
2022-07-30T20:29:50.172Z,23.20
2022-07-30T20:32:19.595Z,23.20
2022-07-30T20:34:49.329Z,23.10
2022-07-30T20:37:21.874Z,23.10
2022-07-30T20:39:51.051Z,23.10
2022-07-30T20:42:21.747Z,23.10
2022-07-30T20:44:53.524Z,23.00
2022-07-30T20:47:34.836Z,23.00
2022-07-30T20:50:10.157Z,23.00
2022-07-30T20:52:40.245Z,22.90
2022-07-30T20:55:10.123Z,22.90
2022-07-30T20:57:56.834Z,22.80
2022-07-30T21:00:31.671Z,22.80
2022-07-30T21:03:03.196Z,22.80
2022-07-30T21:05:35.588Z,22.80
2022-07-30T21:08:04.296Z,22.80
2022-07-30T21:10:35.835Z,22.70
2022-07-30T21:13:07.615Z,22.70
2022-07-30T21:15:37.074Z,22.70
2022-07-30T21:18:14.377Z,22.70
2022-07-30T21:20:47.384Z,22.70
2022-07-30T21:23:20.701Z,22.70
2022-07-30T21:26:00.669Z,22.60
2022-07-30T21:28:35.520Z,22.60
2022-07-30T21:31:06.930Z,22.60
2022-07-30T21:33:36.507Z,22.60
2022-07-30T21:36:10.168Z,22.60
2022-07-30T21:38:41.852Z,22.60
2022-07-30T21:41:14.122Z,22.50
2022-07-30T21:43:44.224Z,22.50
2022-07-30T21:46:13.596Z,22.50
2022-07-30T21:48:43.264Z,22.50
2022-07-30T21:51:15.749Z,22.50
2022-07-30T21:53:46.137Z,22.40
2022-07-30T21:56:15.948Z,22.50
2022-07-30T21:58:45.333Z,22.40
2022-07-30T22:01:16.798Z,22.40
2022-07-30T22:04:05.212Z,22.40
2022-07-30T22:06:39.425Z,22.40
2022-07-30T22:09:18.974Z,22.30
2022-07-30T22:12:00.877Z,22.20
2022-07-30T22:14:31.456Z,22.20
2022-07-30T22:17:00.597Z,22.20
2022-07-30T22:19:32.925Z,22.10
2022-07-30T22:22:05.165Z,22.00
2022-07-30T22:24:51.077Z,22.00
2022-07-30T22:27:19.353Z,21.90
2022-07-30T22:29:50.937Z,22.00
2022-07-30T22:32:24.045Z,21.90
2022-07-30T22:34:52.908Z,22.00
2022-07-30T22:37:23.109Z,22.00
2022-07-30T22:39:54.244Z,21.90
2022-07-30T22:42:24.501Z,21.90
2022-07-30T22:44:55.933Z,21.80
2022-07-30T22:47:50.998Z,21.80
2022-07-30T22:50:14.747Z,21.80
2022-07-30T22:52:59.804Z,21.80
2022-07-30T22:55:36.594Z,21.80
2022-07-30T22:58:09.884Z,21.80
2022-07-30T23:00:40.826Z,21.80
2022-07-30T23:03:09.806Z,21.80
2022-07-30T23:05:40.030Z,21.80
2022-07-30T23:08:13.810Z,21.80
2022-07-30T23:10:42.314Z,21.70
2022-07-30T23:12:16.737Z,23.50
2022-07-30T23:13:11.073Z,21.70
2022-07-30T23:15:39.488Z,21.70
2022-07-30T23:18:08.450Z,21.70
2022-07-30T23:20:36.902Z,21.60
2022-07-30T23:23:05.843Z,21.60
2022-07-30T23:25:39.030Z,21.70
2022-07-30T23:28:07.894Z,21.60
2022-07-30T23:30:36.757Z,21.60
2022-07-30T23:33:05.735Z,21.60
2022-07-30T23:35:35.064Z,21.60
2022-07-30T23:38:03.579Z,21.50
2022-07-30T23:40:32.131Z,21.50
2022-07-30T23:43:02.162Z,21.50
2022-07-30T23:45:31.122Z,21.50
2022-07-30T23:48:02.615Z,21.50
2022-07-30T23:50:33.006Z,21.50
2022-07-30T23:53:01.659Z,21.50
2022-07-30T23:55:31.118Z,21.50
2022-07-30T23:58:01.478Z,21.50
